Time;durP1;ratioP1;P1;durP2;ratioP2;P2;SDS_P1;SDS_P2;PMS_P1;PMS_P2;Temp;Humidity;BMP_temperature;BMP_pressure;BME280_temperature;BME280_humidity;BME280_pressure;Samples;Min_cycle;Max_cycle;Signal;HPM_P1;HPM_P2
2021/09/10 04:02:00;;;;;;;16.50;7.80;;;12.90;96.30;;;;;;5254021;23;20922;-80
2021/09/10 04:04:25;;;;;;;10.93;7.80;;;12.90;96.30;;;;;;4995828;28;20916;-79
2021/09/10 04:06:51;;;;;;;8.37;7.57;;;13.00;96.30;;;;;;4995596;28;20182;-79
2021/09/10 04:09:16;;;;;;;9.40;7.30;;;13.00;96.30;;;;;;4994656;28;20173;-80
2021/09/10 04:11:42;;;;;;;12.27;8.53;;;13.00;96.30;;;;;;4982824;28;20186;-80
2021/09/10 04:14:07;;;;;;;14.20;8.70;;;13.00;96.30;;;;;;4976520;28;20168;-79
2021/09/10 04:16:33;;;;;;;15.03;7.10;;;13.00;96.30;;;;;;4976567;28;20169;-80
2021/09/10 04:19:00;;;;;;;11.20;8.57;;;12.90;96.30;;;;;;4976485;28;20179;-80
2021/09/10 04:21:26;;;;;;;8.67;7.77;;;12.90;96.30;;;;;;4976161;28;20198;-79
2021/09/10 04:23:52;;;;;;;8.93;8.03;;;12.90;96.30;;;;;;4976720;28;20505;-80
2021/09/10 04:26:17;;;;;;;8.87;7.23;;;12.90;96.30;;;;;;4991845;28;20237;-80
2021/09/10 04:28:46;;;;;;;13.10;8.00;;;12.80;96.30;;;;;;4991353;28;20222;-80
2021/09/10 04:31:15;;;;;;;29.07;17.67;;;12.80;96.30;;;;;;4976004;28;20740;-80
2021/09/10 04:33:41;;;;;;;28.27;18.20;;;12.80;96.30;;;;;;4961897;28;20582;-80
2021/09/10 04:36:06;;;;;;;37.53;21.20;;;12.80;96.30;;;;;;4963348;28;20826;-79
2021/09/10 04:38:33;;;;;;;10.57;8.40;;;12.80;96.30;;;;;;4958868;28;20544;-79
2021/09/10 04:40:58;;;;;;;26.33;19.60;;;12.90;96.30;;;;;;4961715;28;20201;-79
2021/09/10 04:43:24;;;;;;;71.17;51.60;;;12.90;96.30;;;;;;4977433;28;20417;-79
2021/09/10 04:45:49;;;;;;;19.07;15.50;;;13.00;96.30;;;;;;4977077;28;20197;-79
2021/09/10 04:48:15;;;;;;;10.03;8.50;;;13.00;96.30;;;;;;4972584;28;20183;-79
2021/09/10 04:50:40;;;;;;;10.10;9.00;;;13.10;96.30;;;;;;4957095;28;20234;-79
2021/09/10 04:53:06;;;;;;;28.00;22.33;;;13.10;96.30;;;;;;4970948;28;20242;-79
2021/09/10 04:55:31;;;;;;;40.33;28.47;;;13.10;96.30;;;;;;4958530;28;20171;-79
2021/09/10 04:57:57;;;;;;;24.57;15.63;;;13.30;96.30;;;;;;4974481;28;20265;-79
2021/09/10 05:00:23;;;;;;;11.27;9.70;;;13.40;96.30;;;;;;4975628;28;20170;-80
2021/09/10 05:02:48;;;;;;;9.70;8.70;;;13.50;96.30;;;;;;4974268;28;20423;-80
2021/09/10 05:05:14;;;;;;;16.80;8.60;;;13.70;96.30;;;;;;4976346;28;20185;-79
2021/09/10 05:07:39;;;;;;;11.03;8.03;;;13.70;96.30;;;;;;4976209;28;20178;-79
2021/09/10 05:10:05;;;;;;;9.50;8.30;;;13.80;96.30;;;;;;4975862;28;20182;-79
2021/09/10 05:12:31;;;;;;;8.27;7.30;;;13.80;96.30;;;;;;4974774;28;20567;-79
2021/09/10 05:14:56;;;;;;;12.77;9.10;;;13.90;96.30;;;;;;4964051;28;20418;-80
2021/09/10 05:17:22;;;;;;;20.53;14.80;;;14.00;96.30;;;;;;4958031;28;20557;-80
2021/09/10 05:19:48;;;;;;;14.77;12.37;;;14.00;96.30;;;;;;4968439;28;20522;-80
2021/09/10 05:22:14;;;;;;;11.67;8.33;;;14.20;96.30;;;;;;4959257;28;20206;-80
2021/09/10 05:24:40;;;;;;;13.73;7.23;;;14.70;96.30;;;;;;4956541;28;20819;-80
2021/09/10 05:27:06;;;;;;;8.67;6.30;;;15.70;96.30;;;;;;4956872;28;20207;-80
2021/09/10 05:29:32;;;;;;;8.67;5.93;;;16.20;96.30;;;;;;4957369;28;20270;-79
2021/09/10 05:31:57;;;;;;;6.37;5.23;;;17.00;96.30;;;;;;4958049;28;21088;-80
2021/09/10 05:34:23;;;;;;;8.63;5.43;;;17.90;96.30;;;;;;4954773;28;20167;-79
2021/09/10 05:36:49;;;;;;;6.70;6.10;;;18.40;96.30;;;;;;4958480;28;20663;-78
2021/09/10 05:39:14;;;;;;;11.17;6.00;;;19.00;96.30;;;;;;4957849;28;20179;-79
2021/09/10 05:41:40;;;;;;;7.37;6.17;;;19.60;96.30;;;;;;4956574;28;20226;-80
2021/09/10 05:44:06;;;;;;;11.10;5.63;;;20.20;96.30;;;;;;4958182;28;20187;-79
2021/09/10 05:46:31;;;;;;;8.63;5.50;;;20.70;96.30;;;;;;4956932;28;20207;-80
2021/09/10 05:48:57;;;;;;;14.93;5.53;;;21.50;96.30;;;;;;4956961;28;20179;-80
2021/09/10 05:51:22;;;;;;;6.67;6.00;;;22.10;95.70;;;;;;4962476;28;20647;-80
2021/09/10 05:53:48;;;;;;;11.33;5.47;;;22.40;93.90;;;;;;4975091;28;20264;-79
2021/09/10 05:56:13;;;;;;;10.90;6.10;;;23.10;91.60;;;;;;4974627;28;20541;-78
2021/09/10 05:58:39;;;;;;;8.17;5.00;;;23.10;91.40;;;;;;4972822;28;20213;-78
2021/09/10 06:01:04;;;;;;;6.33;4.70;;;23.70;88.70;;;;;;4957053;28;20245;-79
2021/09/10 06:03:30;;;;;;;6.00;4.63;;;23.80;88.80;;;;;;4969854;28;20185;-80
2021/09/10 06:05:55;;;;;;;7.57;4.90;;;23.80;88.00;;;;;;4974044;28;20246;-78
2021/09/10 06:08:21;;;;;;;6.80;4.93;;;24.00;86.90;;;;;;4967219;28;20583;-78
2021/09/10 06:10:46;;;;;;;8.03;5.43;;;23.90;86.80;;;;;;4954393;28;20234;-78
2021/09/10 06:13:13;;;;;;;7.73;5.33;;;23.70;88.10;;;;;;4955804;28;20202;-77
2021/09/10 06:15:38;;;;;;;7.20;4.90;;;23.60;89.00;;;;;;4958870;28;20169;-78
2021/09/10 06:18:04;;;;;;;10.43;5.40;;;24.00;86.70;;;;;;4954272;28;20426;-78
2021/09/10 06:20:30;;;;;;;5.47;4.83;;;24.10;86.30;;;;;;4954379;28;20264;-78
2021/09/10 06:22:55;;;;;;;5.30;4.40;;;24.20;86.20;;;;;;4953900;28;20265;-78
2021/09/10 06:25:21;;;;;;;9.10;4.90;;;24.00;87.40;;;;;;4973107;28;20185;-81
2021/09/10 06:27:46;;;;;;;6.23;4.87;;;24.20;87.40;;;;;;4973920;28;20185;-78
2021/09/10 06:30:12;;;;;;;7.60;5.20;;;24.10;87.80;;;;;;4972492;28;20544;-79
2021/09/10 06:32:37;;;;;;;8.13;4.60;;;24.00;88.50;;;;;;4972020;28;20208;-78
2021/09/10 06:35:04;;;;;;;5.30;4.53;;;24.60;86.90;;;;;;4972294;28;20525;-81
2021/09/10 06:37:29;;;;;;;10.03;5.80;;;25.00;85.90;;;;;;4971364;28;20177;-79
2021/09/10 06:39:55;;;;;;;5.83;4.90;;;24.90;85.80;;;;;;4953079;29;20465;-81
2021/09/10 06:42:20;;;;;;;6.40;5.03;;;25.30;85.50;;;;;;4953705;28;20206;-78
2021/09/10 06:44:47;;;;;;;8.57;5.00;;;25.90;84.60;;;;;;4954098;28;20186;-78
2021/09/10 06:47:12;;;;;;;7.90;4.97;;;26.50;82.50;;;;;;4953467;28;20174;-77
2021/09/10 06:49:38;;;;;;;7.97;4.23;;;26.80;81.40;;;;;;4954162;28;20753;-78
2021/09/10 06:52:04;;;;;;;5.67;4.60;;;26.20;83.10;;;;;;4953583;28;20646;-81
2021/09/10 06:54:29;;;;;;;10.03;4.10;;;26.50;82.50;;;;;;4954102;28;20702;-78
2021/09/10 06:56:54;;;;;;;7.50;4.70;;;26.70;81.10;;;;;;4954156;28;20178;-78
2021/09/10 06:59:20;;;;;;;6.17;4.70;;;26.90;80.10;;;;;;4952781;29;20175;-78
2021/09/10 07:01:47;;;;;;;11.10;4.77;;;27.10;80.30;;;;;;4953391;28;20284;-78
2021/09/10 07:04:13;;;;;;;9.27;4.50;;;26.00;82.00;;;;;;4952579;28;20666;-78
2021/09/10 07:06:38;;;;;;;6.70;4.73;;;24.40;86.70;;;;;;4962840;28;20468;-78
2021/09/10 07:09:04;;;;;;;12.60;5.63;;;24.30;88.10;;;;;;4953901;28;20178;-80
2021/09/10 07:11:32;;;;;;;5.20;4.63;;;24.90;86.40;;;;;;4955929;28;20579;-78
2021/09/10 07:14:02;;;;;;;8.77;5.10;;;25.50;84.90;;;;;;4960458;28;20186;-78
2021/09/10 07:16:28;;;;;;;9.60;4.50;;;25.70;84.50;;;;;;4961354;28;20409;-78
2021/09/10 07:18:53;;;;;;;13.10;4.73;;;26.20;83.50;;;;;;4958714;28;20426;-80
2021/09/10 07:21:19;;;;;;;10.23;4.67;;;26.40;83.20;;;;;;4956631;28;20206;-80
2021/09/10 07:23:44;;;;;;;12.33;4.80;;;26.30;84.70;;;;;;4962534;28;20203;-80
2021/09/10 07:26:10;;;;;;;5.23;4.60;;;26.60;84.60;;;;;;4958198;28;20182;-80
2021/09/10 07:28:36;;;;;;;4.77;4.07;;;26.90;83.40;;;;;;4955411;28;20181;-80
2021/09/10 07:31:03;;;;;;;5.57;4.27;;;26.80;83.60;;;;;;4957085;28;20202;-80
2021/09/10 07:33:29;;;;;;;7.70;4.57;;;26.90;84.70;;;;;;4958878;28;20208;-78
2021/09/10 07:35:54;;;;;;;10.87;4.23;;;26.50;85.70;;;;;;4973027;28;20441;-80
2021/09/10 07:38:20;;;;;;;4.53;4.13;;;27.10;83.30;;;;;;4975006;28;20202;-80
2021/09/10 07:40:47;;;;;;;6.30;4.50;;;26.40;89.80;;;;;;4969635;28;20572;-80
2021/09/10 07:43:12;;;;;;;9.63;4.63;;;27.10;86.40;;;;;;4966757;28;20555;-80
2021/09/10 07:45:38;;;;;;;8.43;4.30;;;28.80;85.20;;;;;;4968210;28;20423;-80
2021/09/10 07:48:04;;;;;;;6.47;4.50;;;29.80;82.00;;;;;;4973862;28;20181;-80
2021/09/10 07:50:30;;;;;;;5.30;3.60;;;29.10;81.20;;;;;;4974106;28;21213;-80
2021/09/10 07:52:55;;;;;;;4.87;3.63;;;29.10;83.60;;;;;;4973699;28;20459;-80
2021/09/10 07:55:20;;;;;;;4.95;3.60;;;30.40;82.30;;;;;;4973480;28;20185;-80
2021/09/10 07:57:46;;;;;;;3.90;3.55;;;31.30;80.50;;;;;;4974626;28;20217;-80
2021/09/10 08:00:12;;;;;;;6.32;3.85;;;31.60;76.20;;;;;;4958715;28;20201;-79
2021/09/10 08:02:37;;;;;;;9.43;3.97;;;32.00;78.50;;;;;;4976170;28;20908;-79
2021/09/10 08:05:04;;;;;;;3.88;3.47;;;32.10;75.70;;;;;;4976176;28;20173;-77
2021/09/10 08:07:30;;;;;;;5.80;3.70;;;32.50;77.30;;;;;;4976182;28;20178;-77
2021/09/10 08:09:55;;;;;;;4.50;3.20;;;32.90;74.50;;;;;;4974697;28;20192;-77
2021/09/10 08:12:21;;;;;;;6.45;3.85;;;32.40;76.40;;;;;;4975481;28;20685;-77
2021/09/10 08:14:46;;;;;;;7.07;3.85;;;32.10;76.80;;;;;;4976274;28;20182;-79
2021/09/10 08:17:12;;;;;;;6.03;3.65;;;31.60;78.20;;;;;;4976147;28;20199;-77
2021/09/10 08:19:37;;;;;;;4.85;4.32;;;30.90;79.00;;;;;;4974965;28;20540;-77
2021/09/10 08:22:03;;;;;;;5.60;3.42;;;29.60;79.80;;;;;;4972474;28;20287;-78
2021/09/10 08:24:29;;;;;;;8.20;4.35;;;28.00;86.00;;;;;;4958485;28;20285;-77
2021/09/10 08:26:54;;;;;;;3.97;3.57;;;27.40;88.70;;;;;;4965241;28;20184;-77
2021/09/10 08:29:20;;;;;;;6.73;4.00;;;26.70;90.60;;;;;;4966960;28;21940;-78
2021/09/10 08:31:45;;;;;;;5.03;3.70;;;26.30;91.90;;;;;;4963120;28;20206;-78
2021/09/10 08:34:11;;;;;;;9.80;3.90;;;26.30;93.60;;;;;;4959036;28;20265;-77
2021/09/10 08:36:36;;;;;;;8.40;4.13;;;27.40;91.60;;;;;;4956443;28;20177;-77
2021/09/10 08:39:03;;;;;;;5.60;3.97;;;27.40;90.20;;;;;;4955725;28;20187;-77
2021/09/10 08:41:32;;;;;;;4.30;3.30;;;25.80;93.50;;;;;;4965074;28;20239;-77
2021/09/10 08:44:03;;;;;;;7.53;3.43;;;25.10;96.30;;;;;;4967296;28;21146;-77
2021/09/10 08:46:29;;;;;;;5.40;3.47;;;25.30;96.10;;;;;;4956782;28;20426;-77
2021/09/10 08:48:54;;;;;;;3.50;3.13;;;25.50;95.90;;;;;;4956204;29;20772;-77
2021/09/10 08:51:20;;;;;;;5.53;3.50;;;25.60;94.30;;;;;;4963349;28;20201;-77
2021/09/10 08:53:46;;;;;;;6.63;3.57;;;25.50;95.60;;;;;;4975312;28;20277;-77
2021/09/10 08:56:12;;;;;;;3.80;2.97;;;26.00;96.30;;;;;;4980753;28;20180;-77
2021/09/10 08:58:37;;;;;;;6.03;4.00;;;26.30;92.10;;;;;;4975173;28;20177;-77
2021/09/10 09:01:04;;;;;;;5.63;4.20;;;26.50;94.00;;;;;;4956950;28;20476;-77
2021/09/10 09:03:31;;;;;;;11.10;3.67;;;26.30;90.60;;;;;;4975663;28;20173;-81
2021/09/10 09:05:57;;;;;;;3.53;3.10;;;26.90;92.20;;;;;;4965872;28;20557;-79
2021/09/10 09:08:23;;;;;;;8.23;3.67;;;27.00;92.20;;;;;;4956617;28;20926;-80
2021/09/10 09:11:09;;;;;;;3.83;3.47;;;28.20;87.40;;;;;;4969690;28;20210;-80
2021/09/10 09:13:36;;;;;;;7.53;3.00;;;29.10;87.30;;;;;;4969349;28;20208;-79
2021/09/10 09:16:15;;;;;;;4.70;3.47;;;29.10;85.80;;;;;;4966415;28;20421;-80
2021/09/10 09:18:52;;;;;;;4.97;2.97;;;29.30;84.10;;;;;;4972188;28;20457;-80
2021/09/10 09:21:23;;;;;;;6.67;3.30;;;29.90;83.90;;;;;;4957605;28;20422;-80
2021/09/10 09:23:51;;;;;;;6.03;2.97;;;30.60;80.40;;;;;;4958084;28;20417;-80
2021/09/10 09:26:19;;;;;;;8.00;2.93;;;31.10;80.60;;;;;;4958364;28;20407;-80
2021/09/10 09:28:46;;;;;;;3.93;3.20;;;31.40;78.90;;;;;;4956787;28;20429;-80
2021/09/10 09:31:13;;;;;;;7.67;3.97;;;30.50;80.40;;;;;;4969046;28;20449;-79
2021/09/10 09:33:45;;;;;;;5.40;2.93;;;29.60;83.10;;;;;;4969812;28;20536;-79
2021/09/10 09:36:15;;;;;;;5.60;3.40;;;29.00;86.30;;;;;;4967799;28;20408;-80
2021/09/10 09:38:43;;;;;;;4.73;3.17;;;28.80;84.60;;;;;;4977330;28;20403;-79
2021/09/10 09:41:14;;;;;;;4.30;3.90;;;28.00;88.80;;;;;;4976346;28;20526;-79
2021/09/10 09:43:43;;;;;;;6.10;3.40;;;28.70;86.70;;;;;;4977358;28;20796;-80
2021/09/10 09:46:14;;;;;;;3.53;3.23;;;29.50;85.40;;;;;;4959874;28;20426;-80
2021/09/10 09:48:42;;;;;;;4.00;3.03;;;29.80;79.50;;;;;;4957168;29;20512;-80
2021/09/10 09:51:09;;;;;;;5.63;2.63;;;30.60;82.30;;;;;;4957657;28;20520;-80
2021/09/10 09:53:36;;;;;;;6.60;3.10;;;30.70;78.20;;;;;;4969100;28;20481;-79
2021/09/10 09:56:03;;;;;;;4.30;3.13;;;31.50;77.20;;;;;;4976779;28;20413;-80
2021/09/10 09:58:29;;;;;;;3.80;2.97;;;31.20;74.70;;;;;;4980837;28;20433;-80
2021/09/10 10:00:56;;;;;;;5.40;3.00;;;30.30;75.50;;;;;;4972860;28;20465;-79
2021/09/10 10:03:22;;;;;;;6.57;3.73;;;30.20;75.10;;;;;;4964543;28;20429;-79
2021/09/10 10:06:01;;;;;;;4.30;3.90;;;29.30;76.30;;;;;;4955132;28;20425;-79
2021/09/10 10:08:44;;;;;;;4.00;3.67;;;28.40;79.00;;;;;;4973200;28;20228;-75
2021/09/10 10:11:21;;;;;;;4.00;3.50;;;28.00;81.00;;;;;;4975363;28;20527;-75
2021/09/10 10:13:59;;;;;;;13.67;4.27;;;28.20;81.00;;;;;;4975475;28;20470;-75
2021/09/10 10:16:44;;;;;;;8.83;4.00;;;28.60;79.90;;;;;;4974008;28;20393;-75
2021/09/10 10:19:25;;;;;;;3.80;3.50;;;29.30;82.90;;;;;;4956484;28;20414;-75
2021/09/10 10:21:51;;;;;;;5.10;3.50;;;29.30;80.00;;;;;;4955718;28;20426;-76
2021/09/10 10:24:54;;;;;;;10.47;3.67;;;29.70;75.50;;;;;;4954965;29;20509;-76
2021/09/10 10:27:30;;;;;;;4.97;3.80;;;29.80;76.70;;;;;;4972171;28;20828;-76
2021/09/10 10:29:56;;;;;;;9.53;4.13;;;30.50;79.80;;;;;;4975446;28;20485;-75
2021/09/10 10:32:29;;;;;;;5.03;3.50;;;30.80;76.20;;;;;;4965210;28;20458;-75
2021/09/10 10:35:13;;;;;;;3.77;3.27;;;30.40;76.90;;;;;;4955643;29;20182;-77
2021/09/10 10:37:43;;;;;;;9.20;3.43;;;29.30;79.20;;;;;;4959135;28;20473;-78
2021/09/10 10:40:25;;;;;;;4.33;3.77;;;30.40;81.40;;;;;;4966615;28;20418;-78
2021/09/10 10:42:52;;;;;;;6.07;3.60;;;30.90;74.20;;;;;;4962679;28;20414;-78
2021/09/10 10:45:40;;;;;;;9.00;3.70;;;30.70;78.70;;;;;;4963390;28;20445;-78
2021/09/10 10:48:28;;;;;;;5.00;3.80;;;30.70;79.20;;;;;;4959279;28;20422;-78
2021/09/10 10:50:55;;;;;;;4.53;4.13;;;31.10;77.50;;;;;;4952863;28;20446;-77
2021/09/10 10:53:20;;;;;;;7.33;3.43;;;31.20;75.70;;;;;;4954138;28;20885;-77
2021/09/10 10:55:46;;;;;;;10.87;4.03;;;31.50;76.20;;;;;;4954227;28;21004;-77
2021/09/10 10:58:25;;;;;;;7.20;3.87;;;31.50;75.50;;;;;;4953662;28;20273;-80
2021/09/10 11:00:52;;;;;;;4.50;3.50;;;30.50;75.50;;;;;;4955100;28;20206;-78
2021/09/10 11:03:17;;;;;;;5.40;3.40;;;30.20;76.60;;;;;;4953636;28;20930;-81
2021/09/10 11:05:45;;;;;;;6.70;3.53;;;29.70;74.30;;;;;;4952654;28;20452;-79
2021/09/10 11:08:11;;;;;;;4.77;3.80;;;29.70;79.60;;;;;;4954961;28;20209;-79
2021/09/10 11:10:37;;;;;;;7.50;4.03;;;29.50;76.60;;;;;;4954723;28;20436;-79
2021/09/10 11:13:03;;;;;;;5.60;3.63;;;29.70;79.50;;;;;;4954517;28;20454;-79
2021/09/10 11:15:31;;;;;;;3.83;3.50;;;30.00;77.30;;;;;;4955498;29;20817;-79
2021/09/10 11:17:58;;;;;;;5.80;3.80;;;29.60;77.30;;;;;;4954974;28;20410;-79
2021/09/10 11:20:29;;;;;;;11.17;4.47;;;29.70;78.60;;;;;;4955655;28;20446;-78
2021/09/10 11:22:54;;;;;;;7.40;3.30;;;30.10;77.10;;;;;;4957519;28;20402;-79
2021/09/10 11:25:20;;;;;;;5.00;3.90;;;29.50;78.70;;;;;;4955952;28;20418;-79
2021/09/10 11:27:46;;;;;;;3.77;3.03;;;29.70;80.30;;;;;;4955668;28;20681;-80
2021/09/10 11:30:13;;;;;;;9.63;4.20;;;28.80;76.10;;;;;;4954572;28;20656;-80
2021/09/10 11:32:39;;;;;;;4.87;3.50;;;28.70;77.20;;;;;;4955780;28;20282;-80
2021/09/10 11:35:23;;;;;;;3.97;3.57;;;28.00;80.70;;;;;;4958907;28;20417;-79
2021/09/10 11:37:55;;;;;;;6.93;3.50;;;28.10;81.10;;;;;;4962515;28;20181;-84
2021/09/10 11:40:43;;;;;;;5.30;4.10;;;28.00;82.20;;;;;;4982153;28;20421;-83
2021/09/10 11:43:08;;;;;;;6.70;3.57;;;27.50;80.10;;;;;;4977168;28;20430;-76
2021/09/10 11:45:36;;;;;;;6.37;3.80;;;27.60;79.70;;;;;;4958154;28;20408;-76
2021/09/10 11:48:04;;;;;;;4.80;3.90;;;27.10;82.40;;;;;;4957828;28;20225;-76
2021/09/10 11:50:56;;;;;;;3.90;3.60;;;26.50;81.80;;;;;;4957561;28;20433;-79
2021/09/10 11:53:57;;;;;;;7.50;3.40;;;26.30;82.20;;;;;;4956407;29;20465;-76
2021/09/10 11:56:32;;;;;;;5.23;3.50;;;25.90;85.00;;;;;;4957661;28;20480;-76
2021/09/10 11:58:58;;;;;;;4.07;3.30;;;26.40;83.40;;;;;;4961130;28;20921;-77
2021/09/10 12:01:36;;;;;;;4.17;3.87;;;26.10;82.50;;;;;;4957215;28;20453;-77
2021/09/10 12:04:07;;;;;;;10.63;4.53;;;26.30;82.60;;;;;;4957909;28;20200;-76
2021/09/10 12:06:57;;;;;;;7.33;3.80;;;26.30;84.50;;;;;;4957925;28;20940;-77
2021/09/10 12:09:27;;;;;;;6.83;3.80;;;27.00;81.50;;;;;;4957783;28;20394;-77
2021/09/10 12:12:16;;;;;;;5.43;3.70;;;27.70;82.10;;;;;;4957514;28;20524;-77
2021/09/10 12:14:46;;;;;;;6.57;3.90;;;27.30;81.30;;;;;;4958158;28;20406;-77
2021/09/10 12:17:17;;;;;;;5.30;3.43;;;27.10;83.50;;;;;;4957931;28;20444;-79
2021/09/10 12:19:51;;;;;;;6.73;3.50;;;28.00;83.40;;;;;;4955725;29;20413;-77
2021/09/10 12:22:32;;;;;;;5.60;3.60;;;28.20;77.70;;;;;;4957528;28;20433;-77
2021/09/10 12:25:19;;;;;;;6.40;4.10;;;28.50;80.00;;;;;;4957041;28;20465;-76
2021/09/10 12:27:46;;;;;;;5.00;3.47;;;29.00;80.40;;;;;;4956803;28;20814;-76
2021/09/10 12:30:13;;;;;;;6.87;3.87;;;29.10;80.20;;;;;;4956995;28;20414;-76
2021/09/10 12:32:39;;;;;;;11.20;4.03;;;29.00;79.30;;;;;;4956507;28;20958;-76
2021/09/10 12:35:05;;;;;;;5.70;3.83;;;28.50;77.80;;;;;;4957182;28;20432;-79
2021/09/10 12:37:30;;;;;;;4.43;4.03;;;28.10;78.50;;;;;;4955257;28;20303;-76
2021/09/10 12:39:56;;;;;;;4.10;3.70;;;27.60;79.70;;;;;;4956547;29;20212;-76
2021/09/10 12:42:22;;;;;;;4.50;3.87;;;27.20;80.20;;;;;;4954425;29;20234;-76
2021/09/10 12:44:48;;;;;;;10.23;4.13;;;27.30;83.60;;;;;;4955201;28;20603;-75
2021/09/10 12:47:13;;;;;;;4.77;3.63;;;28.10;84.90;;;;;;4969615;28;21274;-76
2021/09/10 12:49:39;;;;;;;4.20;3.80;;;28.80;84.70;;;;;;4975510;28;20178;-79
2021/09/10 12:52:05;;;;;;;4.20;3.67;;;28.30;80.00;;;;;;4975159;28;20289;-77
2021/09/10 12:54:32;;;;;;;11.03;4.30;;;28.20;77.70;;;;;;4975460;28;20233;-78
2021/09/10 12:56:58;;;;;;;6.43;4.07;;;27.50;78.60;;;;;;4975885;28;20170;-78
2021/09/10 12:59:23;;;;;;;7.57;4.87;;;27.50;81.90;;;;;;4976819;28;20472;-79
2021/09/10 13:01:49;;;;;;;5.37;4.10;;;27.40;82.00;;;;;;4976170;28;20222;-77
2021/09/10 13:04:15;;;;;;;4.27;3.80;;;27.10;83.00;;;;;;4962635;28;20248;-77
2021/09/10 13:06:41;;;;;;;5.47;4.07;;;27.50;81.90;;;;;;4974484;28;20226;-79
2021/09/10 13:09:07;;;;;;;6.60;3.90;;;27.30;80.90;;;;;;4973348;28;20409;-78
2021/09/10 13:11:32;;;;;;;6.40;4.00;;;27.10;82.10;;;;;;4958720;28;20658;-79
2021/09/10 13:14:00;;;;;;;4.40;3.90;;;27.80;84.30;;;;;;4956049;28;20274;-81
2021/09/10 13:16:25;;;;;;;4.73;3.83;;;28.70;78.10;;;;;;4955805;28;20171;-78
2021/09/10 13:18:51;;;;;;;4.27;3.83;;;28.30;78.50;;;;;;4955712;28;20420;-77
2021/09/10 13:21:16;;;;;;;5.53;4.03;;;28.10;79.90;;;;;;4955383;28;20202;-78
2021/09/10 13:23:42;;;;;;;7.20;4.30;;;28.00;80.00;;;;;;4956039;28;20186;-77
2021/09/10 13:26:08;;;;;;;4.30;3.70;;;27.80;79.80;;;;;;4955696;28;20769;-77
2021/09/10 13:28:33;;;;;;;5.87;3.87;;;27.90;81.20;;;;;;4966297;28;20184;-77
2021/09/10 13:30:59;;;;;;;6.13;3.97;;;27.60;79.50;;;;;;4974283;28;20201;-76
2021/09/10 13:33:24;;;;;;;7.37;4.27;;;27.70;81.90;;;;;;4954839;29;20202;-79
2021/09/10 13:35:50;;;;;;;7.27;3.87;;;27.60;79.70;;;;;;4955836;29;20186;-75
2021/09/10 13:38:15;;;;;;;4.33;3.93;;;27.40;79.00;;;;;;4955790;29;20574;-76
2021/09/10 13:40:41;;;;;;;6.40;4.10;;;27.00;80.50;;;;;;4955504;29;20670;-78
2021/09/10 13:43:07;;;;;;;6.17;3.97;;;;;;;;;;4954381;29;20182;-76
2021/09/10 13:45:32;;;;;;;4.70;4.30;;;26.70;81.60;;;;;;4956018;28;20661;-75
2021/09/10 13:47:58;;;;;;;5.60;4.10;;;26.40;83.80;;;;;;4954323;29;20410;-79
2021/09/10 13:50:24;;;;;;;6.93;4.67;;;26.30;84.20;;;;;;4955944;29;20288;-79
2021/09/10 13:52:51;;;;;;;7.77;4.33;;;26.20;84.40;;;;;;4953486;28;20205;-79
2021/09/10 13:55:17;;;;;;;4.40;4.00;;;26.20;83.80;;;;;;4955013;28;20175;-79
2021/09/10 13:57:43;;;;;;;9.00;4.30;;;25.60;86.90;;;;;;4970253;28;20425;-78
2021/09/10 14:00:09;;;;;;;4.90;4.37;;;25.50;84.80;;;;;;4979602;28;20276;-78
2021/09/10 14:02:35;;;;;;;4.93;4.30;;;25.50;84.90;;;;;;4960072;28;20214;-77
2021/09/10 14:05:01;;;;;;;6.50;4.73;;;25.30;86.90;;;;;;4954816;28;20580;-77
2021/09/10 14:07:27;;;;;;;5.00;4.50;;;25.20;87.30;;;;;;4963379;28;21007;-78
2021/09/10 14:09:52;;;;;;;6.20;4.43;;;25.10;89.10;;;;;;4974340;28;20508;-78
2021/09/10 14:12:18;;;;;;;6.03;4.20;;;25.10;89.50;;;;;;4962214;28;20290;-79
2021/09/10 14:14:43;;;;;;;8.47;3.40;;;24.70;89.30;;;;;;4954979;28;20576;-80
2021/09/10 14:17:09;;;;;;;6.80;3.80;;;24.80;87.90;;;;;;4954149;28;20225;-80
2021/09/10 14:19:34;;;;;;;7.33;3.97;;;24.80;88.40;;;;;;4955625;28;20182;-79
2021/09/10 14:22:00;;;;;;;4.27;3.87;;;24.70;87.30;;;;;;4961759;28;20621;-80
2021/09/10 14:24:26;;;;;;;8.93;3.77;;;24.70;89.00;;;;;;4965113;28;20181;-79
2021/09/10 14:26:52;;;;;;;7.20;4.73;;;24.40;89.70;;;;;;4959947;28;21021;-79
2021/09/10 14:29:17;;;;;;;6.03;4.80;;;24.10;93.20;;;;;;4958484;28;20522;-78
2021/09/10 14:31:43;;;;;;;6.70;4.93;;;23.70;94.70;;;;;;4964794;28;20775;-78
2021/09/10 14:34:11;;;;;;;8.33;5.00;;;;;;;;;;4972169;28;20684;-78
2021/09/10 14:36:38;;;;;;;6.50;5.77;;;23.40;96.30;;;;;;4972818;28;20199;-79
2021/09/10 14:39:03;;;;;;;13.63;5.50;;;23.40;96.30;;;;;;4968816;28;20418;-79
2021/09/10 14:41:29;;;;;;;7.17;5.60;;;23.30;96.30;;;;;;4952789;28;20230;-78
2021/09/10 14:43:54;;;;;;;8.33;5.77;;;23.30;96.30;;;;;;4954261;28;20230;-77
2021/09/10 14:46:21;;;;;;;6.27;5.27;;;23.20;96.30;;;;;;4957427;28;20222;-79
2021/09/10 14:48:47;;;;;;;6.67;6.00;;;23.10;96.30;;;;;;4972890;28;20273;-78
2021/09/10 14:51:13;;;;;;;6.13;5.47;;;23.00;96.30;;;;;;4968697;28;20446;-78
2021/09/10 14:53:39;;;;;;;11.83;4.70;;;23.00;96.30;;;;;;4961208;28;20969;-79
2021/09/10 14:56:05;;;;;;;5.70;5.10;;;22.90;96.30;;;;;;4970921;28;20203;-80
2021/09/10 14:58:31;;;;;;;9.50;4.60;;;22.80;96.30;;;;;;4973001;28;20178;-80
2021/09/10 15:00:59;;;;;;;4.77;4.37;;;22.60;96.30;;;;;;4965509;28;20679;-79
2021/09/10 15:03:27;;;;;;;8.23;5.10;;;22.60;96.30;;;;;;4972669;28;20418;-79
2021/09/10 15:05:52;;;;;;;5.77;4.43;;;22.60;96.30;;;;;;4972167;28;20414;-79
2021/09/10 15:08:18;;;;;;;8.63;4.73;;;22.60;96.30;;;;;;4955612;28;20420;-79
2021/09/10 15:10:44;;;;;;;6.23;4.83;;;22.70;96.30;;;;;;4956052;28;20682;-79
2021/09/10 15:13:10;;;;;;;6.00;4.93;;;22.70;96.30;;;;;;4951320;28;20211;-79
2021/09/10 15:15:36;;;;;;;5.33;4.77;;;22.70;96.30;;;;;;4953445;28;20173;-79
2021/09/10 15:18:01;;;;;;;5.17;4.67;;;22.80;96.30;;;;;;4967375;28;20166;-80
2021/09/10 15:20:27;;;;;;;7.27;4.27;;;22.80;96.30;;;;;;4970930;28;20414;-79
2021/09/10 15:22:53;;;;;;;8.40;4.90;;;22.90;96.30;;;;;;4956225;28;20181;-79
2021/09/10 15:25:18;;;;;;;6.73;4.70;;;22.70;96.30;;;;;;4963319;28;20174;-79
2021/09/10 15:27:44;;;;;;;7.27;4.20;;;22.60;96.30;;;;;;4967256;28;20178;-79
2021/09/10 15:30:10;;;;;;;4.73;4.33;;;22.40;96.30;;;;;;4972080;28;20194;-79
2021/09/10 15:32:36;;;;;;;5.20;4.50;;;22.30;96.30;;;;;;4967998;28;20528;-79
2021/09/10 15:35:02;;;;;;;9.40;4.20;;;22.30;96.30;;;;;;4973386;28;20186;-79
2021/09/10 15:37:28;;;;;;;5.53;5.03;;;22.30;96.30;;;;;;4972663;28;20422;-78
2021/09/10 15:39:54;;;;;;;5.83;5.10;;;22.30;96.30;;;;;;4967039;28;20409;-79
2021/09/10 15:42:19;;;;;;;6.83;4.10;;;22.30;96.30;;;;;;4970198;28;20197;-78
2021/09/10 15:44:45;;;;;;;5.50;4.73;;;22.20;96.30;;;;;;4969657;28;20183;-78
2021/09/10 15:47:10;;;;;;;5.90;3.90;;;22.00;96.30;;;;;;4971070;28;20209;-79
2021/09/10 15:49:36;;;;;;;7.70;4.40;;;22.00;96.30;;;;;;4969886;28;20198;-78
2021/09/10 15:52:02;;;;;;;5.13;3.77;;;21.90;96.30;;;;;;4964009;28;20207;-78
2021/09/10 15:54:27;;;;;;;4.00;3.70;;;21.80;96.30;;;;;;4969393;28;20209;-78
2021/09/10 15:56:55;;;;;;;5.40;4.00;;;21.80;96.30;;;;;;4972249;28;20850;-79
2021/09/10 15:59:21;;;;;;;4.70;4.20;;;21.80;96.30;;;;;;4971091;28;20174;-79
2021/09/10 16:01:47;;;;;;;5.13;4.10;;;21.70;96.30;;;;;;4952704;28;20454;-79
2021/09/10 16:04:13;;;;;;;6.60;3.70;;;21.60;96.30;;;;;;4963630;28;20433;-77
2021/09/10 16:06:40;;;;;;;6.33;4.20;;;21.50;96.30;;;;;;4972660;28;20206;-77
2021/09/10 16:09:06;;;;;;;6.20;4.37;;;21.40;96.30;;;;;;4972327;28;20257;-79
2021/09/10 16:11:32;;;;;;;3.87;3.40;;;21.30;96.30;;;;;;4971856;28;20437;-80
2021/09/10 16:13:57;;;;;;;4.77;3.50;;;21.20;96.30;;;;;;4972244;28;20480;-77
2021/09/10 16:16:23;;;;;;;4.10;3.10;;;21.10;96.30;;;;;;4972288;28;20179;-77
2021/09/10 16:18:48;;;;;;;6.50;5.00;;;21.00;96.30;;;;;;4957874;28;20210;-78
2021/09/10 16:21:14;;;;;;;4.30;3.90;;;;;;;;;;4970775;28;20203;-79
2021/09/10 16:23:40;;;;;;;6.90;4.80;;;20.90;96.30;;;;;;4956195;28;20183;-81
2021/09/10 16:26:05;;;;;;;21.00;17.27;;;20.90;96.30;;;;;;4966333;28;20269;-77
2021/09/10 16:28:32;;;;;;;1999.90;999.90;;;20.80;96.30;;;;;;4958353;28;20593;-76
2021/09/10 16:30:58;;;;;;;77.87;64.67;;;20.70;96.30;;;;;;4962548;28;20211;-78
2021/09/10 16:33:24;;;;;;;20.13;12.00;;;20.70;96.30;;;;;;4962886;28;20460;-78
2021/09/10 16:35:49;;;;;;;5.37;4.00;;;20.70;96.30;;;;;;4961234;28;20185;-76
2021/09/10 16:38:15;;;;;;;123.73;101.10;;;20.60;96.30;;;;;;4964375;28;20283;-78
2021/09/10 16:40:40;;;;;;;43.90;37.13;;;20.60;96.30;;;;;;4956273;28;20206;-77
2021/09/10 16:43:06;;;;;;;138.23;118.17;;;20.60;96.30;;;;;;4955894;28;20215;-78
2021/09/10 16:45:33;;;;;;;197.67;167.40;;;20.50;96.30;;;;;;4970617;28;20665;-78
2021/09/10 16:47:58;;;;;;;29.43;23.03;;;20.50;96.30;;;;;;4964569;28;20974;-78